Airfield :
LOGIN :

Register | Disclaimer

   EN    FR    IT 

 










Legend :    VFR   Marginal VFR   IFR   Intensive IFR   Very Intensive IFR
Visi :
Ceiling :
>= 8 km
>= 3000ft
5 to 8 km
1000 to 3000 ft
1500m to 5 km
500 to 1000 ft
800 to 1500m
200 to 500 ft
< 800m
< 200 ft
Symbols :   Thunderstorms  Fog  Heavy snow  Heavy precipitations  Wind > 20 kt
SIGMETs :     Misc.  Thunderstorms  Icing  Turbulence  Mountain Waves  Volcanic Ashes







- Airport Elevation : 25 ft
- IATA code : TPS


LICT - Vincenzo Florio Trapani

CURRENT METAR :
  • 170255Z 21009KT 9999 FEW015 15/13 Q1017 RMK SCT SCT200 VIS MIN 9999 WIND THR13 20012KT BLU

EXPIRED METARs :
  • 170155Z 20011KT 9999 FEW015 15/13 Q1017 RMK SCT SCT200 VIS MIN 9999 WIND THR13 20014KT BLU
  • 170055Z 14005KT 9999 FEW018 13/12 Q1018

TAF TAF LICT
Valid from the 17 at 03:00 until the 17 at 12:00 UTC


170200Z 1703/1712 22015KT 9999 SCT015
BECMG 1709/1711 30017G27KT
TEMPO 1709/1712 SHRA BKN015
No reported NOTAMs for that airfield.
1 SIGMET reported for the Roma FIR (LIRR) :
 
Severe icing
LIRR SIGMET 1 VALID 170206/170506 LIIB
LIRR ROMA FIR SEV ICE FCST N OF LINE N4254 E01349 - N4347 E01006 ABV FL040 STNR NC=



MET'MAP, your aeronautical weather chart ! - Copyright ORBIFLY December 2007 - Disclaimer

ORBIFLY MET'MAP TEAM :

Programming & Development : Alexandra Zaïnal
Concept & Development : Baudouin d'Aumeries
Co-Development & Prog : Marc-Olivier Méhu
Technical & hardware support : Manuel Goepfert

Contact : metmap@orbifly.com




SOURCES & CREDITS :

   NOAA